sensor_id;sensor_type;location;lat;lon;timestamp;temperature;humidity
63899;HTU21D;50070;-32.946;-60.652;2022-11-09T00:01:03;25.46;34.39
63899;HTU21D;50070;-32.946;-60.652;2022-11-09T00:03:30;25.48;34.25
63899;HTU21D;50070;-32.946;-60.652;2022-11-09T00:05:58;25.06;35.25
63899;HTU21D;50070;-32.946;-60.652;2022-11-09T00:08:25;25.15;35.15
63899;HTU21D;50070;-32.946;-60.652;2022-11-09T00:10:52;25.35;34.70
63899;HTU21D;50070;-32.946;-60.652;2022-11-09T00:13:19;25.37;34.86
63899;HTU21D;50070;-32.946;-60.652;2022-11-09T00:15:46;25.34;35.06
63899;HTU21D;50070;-32.946;-60.652;2022-11-09T00:18:12;25.32;35.71
63899;HTU21D;50070;-32.946;-60.652;2022-11-09T00:20:39;25.31;36.37
63899;HTU21D;50070;-32.946;-60.652;2022-11-09T00:23:06;25.40;36.66
63899;HTU21D;50070;-32.946;-60.652;2022-11-09T00:25:32;25.29;37.33
63899;HTU21D;50070;-32.946;-60.652;2022-11-09T00:27:59;25.19;37.42
63899;HTU21D;50070;-32.946;-60.652;2022-11-09T00:30:26;25.12;37.46
63899;HTU21D;50070;-32.946;-60.652;2022-11-09T00:32:52;25.09;37.14
63899;HTU21D;50070;-32.946;-60.652;2022-11-09T00:35:19;25.07;37.30
63899;HTU21D;50070;-32.946;-60.652;2022-11-09T00:37:45;25.17;37.22
63899;HTU21D;50070;-32.946;-60.652;2022-11-09T00:40:12;25.15;37.72
63899;HTU21D;50070;-32.946;-60.652;2022-11-09T00:42:39;25.05;38.40
63899;HTU21D;50070;-32.946;-60.652;2022-11-09T00:45:06;25.04;38.44
63899;HTU21D;50070;-32.946;-60.652;2022-11-09T00:47:33;24.94;38.63
63899;HTU21D;50070;-32.946;-60.652;2022-11-09T00:49:59;24.84;39.10
63899;HTU21D;50070;-32.946;-60.652;2022-11-09T00:52:26;25.17;38.36
63899;HTU21D;50070;-32.946;-60.652;2022-11-09T00:54:53;25.10;38.53
63899;HTU21D;50070;-32.946;-60.652;2022-11-09T00:57:19;24.87;38.80
63899;HTU21D;50070;-32.946;-60.652;2022-11-09T00:59:46;24.68;39.37
63899;HTU21D;50070;-32.946;-60.652;2022-11-09T01:02:13;24.84;39.17
63899;HTU21D;50070;-32.946;-60.652;2022-11-09T01:04:39;24.87;39.17
63899;HTU21D;50070;-32.946;-60.652;2022-11-09T01:07:07;24.57;39.70
63899;HTU21D;50070;-32.946;-60.652;2022-11-09T01:09:34;24.57;39.99
63899;HTU21D;50070;-32.946;-60.652;2022-11-09T01:12:00;24.69;39.61
63899;HTU21D;50070;-32.946;-60.652;2022-11-09T01:14:27;24.70;39.74
63899;HTU21D;50070;-32.946;-60.652;2022-11-09T01:16:54;24.79;39.46
63899;HTU21D;50070;-32.946;-60.652;2022-11-09T01:19:20;24.84;39.33
63899;HTU21D;50070;-32.946;-60.652;2022-11-09T01:21:47;24.55;40.06
63899;HTU21D;50070;-32.946;-60.652;2022-11-09T01:24:13;24.59;39.78
63899;HTU21D;50070;-32.946;-60.652;2022-11-09T01:26:40;24.54;39.49
63899;HTU21D;50070;-32.946;-60.652;2022-11-09T01:29:07;24.61;39.33
63899;HTU21D;50070;-32.946;-60.652;2022-11-09T01:31:33;24.89;38.82
63899;HTU21D;50070;-32.946;-60.652;2022-11-09T01:34:00;24.45;40.12
63899;HTU21D;50070;-32.946;-60.652;2022-11-09T01:36:26;24.31;40.46
63899;HTU21D;50070;-32.946;-60.652;2022-11-09T01:38:53;24.38;40.24
63899;HTU21D;50070;-32.946;-60.652;2022-11-09T01:41:23;24.49;39.99
63899;HTU21D;50070;-32.946;-60.652;2022-11-09T01:49:46;24.21;40.81
63899;HTU21D;50070;-32.946;-60.652;2022-11-09T01:52:38;24.10;40.93
63899;HTU21D;50070;-32.946;-60.652;2022-11-09T01:55:17;23.95;41.39
63899;HTU21D;50070;-32.946;-60.652;2022-11-09T01:58:14;23.97;41.39
63899;HTU21D;50070;-32.946;-60.652;2022-11-09T02:00:45;24.19;40.81
63899;HTU21D;50070;-32.946;-60.652;2022-11-09T02:03:32;23.90;41.46
63899;HTU21D;50070;-32.946;-60.652;2022-11-09T02:06:03;23.85;41.71
63899;HTU21D;50070;-32.946;-60.652;2022-11-09T02:08:30;23.83;41.94
63899;HTU21D;50070;-32.946;-60.652;2022-11-09T02:11:14;23.57;42.44
63899;HTU21D;50070;-32.946;-60.652;2022-11-09T02:13:48;23.51;42.52
63899;HTU21D;50070;-32.946;-60.652;2022-11-09T02:16:18;23.61;42.28
63899;HTU21D;50070;-32.946;-60.652;2022-11-09T02:18:55;23.67;42.23
63899;HTU21D;50070;-32.946;-60.652;2022-11-09T02:21:24;23.34;43.30
63899;HTU21D;50070;-32.946;-60.652;2022-11-09T02:23:52;23.66;42.59
63899;HTU21D;50070;-32.946;-60.652;2022-11-09T02:28:58;23.37;43.56
63899;HTU21D;50070;-32.946;-60.652;2022-11-09T02:31:35;23.54;43.22
63899;HTU21D;50070;-32.946;-60.652;2022-11-09T02:34:16;23.54;43.22
63899;HTU21D;50070;-32.946;-60.652;2022-11-09T02:36:43;23.46;43.43
63899;HTU21D;50070;-32.946;-60.652;2022-11-09T02:39:10;23.57;43.29
63899;HTU21D;50070;-32.946;-60.652;2022-11-09T02:41:45;23.71;43.00
63899;HTU21D;50070;-32.946;-60.652;2022-11-09T02:44:14;23.65;43.29
63899;HTU21D;50070;-32.946;-60.652;2022-11-09T02:46:41;23.42;43.90
63899;HTU21D;50070;-32.946;-60.652;2022-11-09T02:49:08;23.42;44.19
63899;HTU21D;50070;-32.946;-60.652;2022-11-09T02:51:34;23.26;44.54
63899;HTU21D;50070;-32.946;-60.652;2022-11-09T02:54:01;23.24;44.95
63899;HTU21D;50070;-32.946;-60.652;2022-11-09T02:56:28;23.07;45.70
63899;HTU21D;50070;-32.946;-60.652;2022-11-09T02:58:54;23.13;45.45
63899;HTU21D;50070;-32.946;-60.652;2022-11-09T03:01:21;23.26;45.25
63899;HTU21D;50070;-32.946;-60.652;2022-11-09T03:03:48;23.12;45.87
63899;HTU21D;50070;-32.946;-60.652;2022-11-09T03:06:14;22.95;46.31
63899;HTU21D;50070;-32.946;-60.652;2022-11-09T03:08:41;22.92;46.32
63899;HTU21D;50070;-32.946;-60.652;2022-11-09T03:11:08;23.08;45.84
63899;HTU21D;50070;-32.946;-60.652;2022-11-09T03:13:34;22.81;46.62
63899;HTU21D;50070;-32.946;-60.652;2022-11-09T03:16:05;22.76;46.90
63899;HTU21D;50070;-32.946;-60.652;2022-11-09T03:18:32;22.88;46.58
63899;HTU21D;50070;-32.946;-60.652;2022-11-09T03:21:05;22.84;47.09
63899;HTU21D;50070;-32.946;-60.652;2022-11-09T03:23:32;22.93;46.72
63899;HTU21D;50070;-32.946;-60.652;2022-11-09T03:25:59;22.88;46.61
63899;HTU21D;50070;-32.946;-60.652;2022-11-09T03:28:25;22.82;47.01
63899;HTU21D;50070;-32.946;-60.652;2022-11-09T03:30:52;22.93;46.80
63899;HTU21D;50070;-32.946;-60.652;2022-11-09T03:33:19;22.93;47.00
63899;HTU21D;50070;-32.946;-60.652;2022-11-09T03:35:45;22.88;46.78
63899;HTU21D;50070;-32.946;-60.652;2022-11-09T03:38:12;22.96;46.67
63899;HTU21D;50070;-32.946;-60.652;2022-11-09T03:40:39;22.80;46.93
63899;HTU21D;50070;-32.946;-60.652;2022-11-09T03:43:05;22.70;47.31
63899;HTU21D;50070;-32.946;-60.652;2022-11-09T03:45:32;22.73;46.65
63899;HTU21D;50070;-32.946;-60.652;2022-11-09T03:47:59;22.95;46.20
63899;HTU21D;50070;-32.946;-60.652;2022-11-09T03:50:27;23.20;45.57
63899;HTU21D;50070;-32.946;-60.652;2022-11-09T03:52:55;23.00;46.22
63899;HTU21D;50070;-32.946;-60.652;2022-11-09T03:55:24;22.85;46.31
63899;HTU21D;50070;-32.946;-60.652;2022-11-09T03:57:51;22.63;46.82
63899;HTU21D;50070;-32.946;-60.652;2022-11-09T04:00:20;22.79;46.20
63899;HTU21D;50070;-32.946;-60.652;2022-11-09T04:02:47;22.65;46.49
63899;HTU21D;50070;-32.946;-60.652;2022-11-09T04:05:14;22.67;46.10
63899;HTU21D;50070;-32.946;-60.652;2022-11-09T04:07:48;22.80;45.67
63899;HTU21D;50070;-32.946;-60.652;2022-11-09T04:10:15;22.75;45.34
63899;HTU21D;50070;-32.946;-60.652;2022-11-09T04:12:44;22.68;46.16
63899;HTU21D;50070;-32.946;-60.652;2022-11-09T04:15:11;22.52;46.22
63899;HTU21D;50070;-32.946;-60.652;2022-11-09T04:17:38;22.43;46.27
63899;HTU21D;50070;-32.946;-60.652;2022-11-09T04:20:07;22.42;46.27
63899;HTU21D;50070;-32.946;-60.652;2022-11-09T04:22:34;22.50;46.24
63899;HTU21D;50070;-32.946;-60.652;2022-11-09T04:25:00;22.37;46.31
63899;HTU21D;50070;-32.946;-60.652;2022-11-09T04:27:27;22.37;46.44
63899;HTU21D;50070;-32.946;-60.652;2022-11-09T04:29:55;22.28;46.40
63899;HTU21D;50070;-32.946;-60.652;2022-11-09T04:32:22;22.34;46.19
63899;HTU21D;50070;-32.946;-60.652;2022-11-09T04:34:48;22.40;46.19
63899;HTU21D;50070;-32.946;-60.652;2022-11-09T04:37:15;22.37;45.90
63899;HTU21D;50070;-32.946;-60.652;2022-11-09T04:39:41;22.35;46.06
63899;HTU21D;50070;-32.946;-60.652;2022-11-09T04:42:08;22.36;45.85
63899;HTU21D;50070;-32.946;-60.652;2022-11-09T04:44:35;22.31;45.70
63899;HTU21D;50070;-32.946;-60.652;2022-11-09T04:47:02;22.55;45.28
63899;HTU21D;50070;-32.946;-60.652;2022-11-09T04:49:29;22.42;45.97
63899;HTU21D;50070;-32.946;-60.652;2022-11-09T04:51:55;22.43;45.99
63899;HTU21D;50070;-32.946;-60.652;2022-11-09T04:54:22;22.20;46.42
63899;HTU21D;50070;-32.946;-60.652;2022-11-09T04:56:49;22.40;45.83
63899;HTU21D;50070;-32.946;-60.652;2022-11-09T04:59:15;22.51;45.59
63899;HTU21D;50070;-32.946;-60.652;2022-11-09T05:01:42;22.56;45.15
63899;HTU21D;50070;-32.946;-60.652;2022-11-09T05:04:09;22.39;45.88
63899;HTU21D;50070;-32.946;-60.652;2022-11-09T05:06:35;22.46;45.65
63899;HTU21D;50070;-32.946;-60.652;2022-11-09T05:09:06;22.34;46.15
63899;HTU21D;50070;-32.946;-60.652;2022-11-09T05:11:34;22.21;46.54
63899;HTU21D;50070;-32.946;-60.652;2022-11-09T05:14:01;22.39;46.11
63899;HTU21D;50070;-32.946;-60.652;2022-11-09T05:16:28;22.61;45.66
63899;HTU21D;50070;-32.946;-60.652;2022-11-09T05:18:55;22.56;45.57
63899;HTU21D;50070;-32.946;-60.652;2022-11-09T05:21:22;22.37;46.22
63899;HTU21D;50070;-32.946;-60.652;2022-11-09T05:23:49;22.34;46.50
63899;HTU21D;50070;-32.946;-60.652;2022-11-09T05:26:37;22.66;45.80
63899;HTU21D;50070;-32.946;-60.652;2022-11-09T05:29:09;22.53;46.25
63899;HTU21D;50070;-32.946;-60.652;2022-11-09T05:31:36;22.65;45.99
63899;HTU21D;50070;-32.946;-60.652;2022-11-09T05:34:04;22.38;46.87
63899;HTU21D;50070;-32.946;-60.652;2022-11-09T05:36:32;22.44;46.82
63899;HTU21D;50070;-32.946;-60.652;2022-11-09T05:38:59;22.55;47.14
63899;HTU21D;50070;-32.946;-60.652;2022-11-09T05:41:26;22.40;47.76
63899;HTU21D;50070;-32.946;-60.652;2022-11-09T05:43:53;22.46;48.13
63899;HTU21D;50070;-32.946;-60.652;2022-11-09T05:46:19;22.32;49.15
63899;HTU21D;50070;-32.946;-60.652;2022-11-09T05:48:46;22.22;49.37
63899;HTU21D;50070;-32.946;-60.652;2022-11-09T05:51:13;22.33;49.33
63899;HTU21D;50070;-32.946;-60.652;2022-11-09T05:53:40;22.50;48.91
63899;HTU21D;50070;-32.946;-60.652;2022-11-09T05:56:09;22.38;49.19
63899;HTU21D;50070;-32.946;-60.652;2022-11-09T05:58:37;22.35;49.25
63899;HTU21D;50070;-32.946;-60.652;2022-11-09T06:01:12;22.11;50.24
63899;HTU21D;50070;-32.946;-60.652;2022-11-09T06:03:39;21.81;51.36
63899;HTU21D;50070;-32.946;-60.652;2022-11-09T06:06:11;21.89;51.13
63899;HTU21D;50070;-32.946;-60.652;2022-11-09T06:08:38;22.20;50.02
63899;HTU21D;50070;-32.946;-60.652;2022-11-09T06:11:07;22.17;50.13
63899;HTU21D;50070;-32.946;-60.652;2022-11-09T06:13:34;21.95;50.87
63899;HTU21D;50070;-32.946;-60.652;2022-11-09T06:16:04;21.99;50.51
63899;HTU21D;50070;-32.946;-60.652;2022-11-09T06:18:32;21.74;50.61
63899;HTU21D;50070;-32.946;-60.652;2022-11-09T06:21:02;22.04;49.87
63899;HTU21D;50070;-32.946;-60.652;2022-11-09T06:23:29;21.88;49.77
63899;HTU21D;50070;-32.946;-60.652;2022-11-09T06:25:58;21.77;49.84
63899;HTU21D;50070;-32.946;-60.652;2022-11-09T06:28:25;21.97;49.38
63899;HTU21D;50070;-32.946;-60.652;2022-11-09T06:30:52;21.62;49.65
63899;HTU21D;50070;-32.946;-60.652;2022-11-09T06:33:22;21.57;49.66
63899;HTU21D;50070;-32.946;-60.652;2022-11-09T06:35:48;21.61;48.94
63899;HTU21D;50070;-32.946;-60.652;2022-11-09T06:38:16;21.22;49.98
63899;HTU21D;50070;-32.946;-60.652;2022-11-09T06:40:42;21.31;49.21
63899;HTU21D;50070;-32.946;-60.652;2022-11-09T06:43:09;21.36;49.43
63899;HTU21D;50070;-32.946;-60.652;2022-11-09T06:45:36;21.76;48.36
63899;HTU21D;50070;-32.946;-60.652;2022-11-09T06:48:03;21.57;49.02
63899;HTU21D;50070;-32.946;-60.652;2022-11-09T06:50:32;21.54;48.80
63899;HTU21D;50070;-32.946;-60.652;2022-11-09T06:53:03;21.52;48.85
63899;HTU21D;50070;-32.946;-60.652;2022-11-09T06:55:32;21.51;48.60
63899;HTU21D;50070;-32.946;-60.652;2022-11-09T06:57:59;21.48;49.32
63899;HTU21D;50070;-32.946;-60.652;2022-11-09T07:00:30;21.45;49.15
63899;HTU21D;50070;-32.946;-60.652;2022-11-09T07:02:57;21.58;49.34
63899;HTU21D;50070;-32.946;-60.652;2022-11-09T07:05:23;21.52;49.54
63899;HTU21D;50070;-32.946;-60.652;2022-11-09T07:07:50;21.57;49.49
63899;HTU21D;50070;-32.946;-60.652;2022-11-09T07:10:20;21.61;49.60
63899;HTU21D;50070;-32.946;-60.652;2022-11-09T07:12:47;21.14;51.08
63899;HTU21D;50070;-32.946;-60.652;2022-11-09T07:15:13;21.05;51.59
63899;HTU21D;50070;-32.946;-60.652;2022-11-09T07:17:41;20.76;52.51
63899;HTU21D;50070;-32.946;-60.652;2022-11-09T07:20:09;20.57;53.15
63899;HTU21D;50070;-32.946;-60.652;2022-11-09T07:22:36;20.58;53.23
63899;HTU21D;50070;-32.946;-60.652;2022-11-09T07:25:06;20.28;54.19
63899;HTU21D;50070;-32.946;-60.652;2022-11-09T07:27:34;20.46;53.50
63899;HTU21D;50070;-32.946;-60.652;2022-11-09T07:30:01;20.59;53.15
63899;HTU21D;50070;-32.946;-60.652;2022-11-09T07:32:32;20.44;53.72
63899;HTU21D;50070;-32.946;-60.652;2022-11-09T07:34:59;20.59;53.26
63899;HTU21D;50070;-32.946;-60.652;2022-11-09T07:37:26;20.71;53.07
63899;HTU21D;50070;-32.946;-60.652;2022-11-09T07:39:52;20.78;52.82
63899;HTU21D;50070;-32.946;-60.652;2022-11-09T07:42:19;20.84;52.36
63899;HTU21D;50070;-32.946;-60.652;2022-11-09T07:44:46;20.26;54.04
63899;HTU21D;50070;-32.946;-60.652;2022-11-09T07:47:12;20.50;53.08
63899;HTU21D;50070;-32.946;-60.652;2022-11-09T07:49:39;20.27;53.59
63899;HTU21D;50070;-32.946;-60.652;2022-11-09T07:52:05;20.59;52.63
63899;HTU21D;50070;-32.946;-60.652;2022-11-09T07:54:32;20.21;53.59
63899;HTU21D;50070;-32.946;-60.652;2022-11-09T07:56:59;20.37;53.01
63899;HTU21D;50070;-32.946;-60.652;2022-11-09T07:59:25;20.36;53.13
63899;HTU21D;50070;-32.946;-60.652;2022-11-09T08:01:51;20.46;52.88
63899;HTU21D;50070;-32.946;-60.652;2022-11-09T08:04:18;20.54;52.76
63899;HTU21D;50070;-32.946;-60.652;2022-11-09T08:06:45;20.64;52.40
63899;HTU21D;50070;-32.946;-60.652;2022-11-09T08:09:11;20.34;53.32
63899;HTU21D;50070;-32.946;-60.652;2022-11-09T08:11:38;20.54;52.88
63899;HTU21D;50070;-32.946;-60.652;2022-11-09T08:14:04;20.42;53.30
63899;HTU21D;50070;-32.946;-60.652;2022-11-09T08:16:31;20.34;53.49
63899;HTU21D;50070;-32.946;-60.652;2022-11-09T08:18:58;20.29;53.74
63899;HTU21D;50070;-32.946;-60.652;2022-11-09T08:21:24;20.57;52.90
63899;HTU21D;50070;-32.946;-60.652;2022-11-09T08:23:51;20.54;52.88
63899;HTU21D;50070;-32.946;-60.652;2022-11-09T08:26:18;20.39;53.20
63899;HTU21D;50070;-32.946;-60.652;2022-11-09T08:28:44;20.32;53.43
63899;HTU21D;50070;-32.946;-60.652;2022-11-09T08:31:11;20.37;52.98
63899;HTU21D;50070;-32.946;-60.652;2022-11-09T08:33:41;20.34;53.10
63899;HTU21D;50070;-32.946;-60.652;2022-11-09T08:36:08;20.35;53.16
63899;HTU21D;50070;-32.946;-60.652;2022-11-09T08:38:34;20.11;54.25
63899;HTU21D;50070;-32.946;-60.652;2022-11-09T08:41:01;20.14;53.99
63899;HTU21D;50070;-32.946;-60.652;2022-11-09T08:43:28;20.35;53.02
63899;HTU21D;50070;-32.946;-60.652;2022-11-09T08:45:54;20.21;53.24
63899;HTU21D;50070;-32.946;-60.652;2022-11-09T08:48:21;20.16;53.68
63899;HTU21D;50070;-32.946;-60.652;2022-11-09T08:50:52;20.33;53.24
63899;HTU21D;50070;-32.946;-60.652;2022-11-09T08:53:19;20.41;52.89
63899;HTU21D;50070;-32.946;-60.652;2022-11-09T08:55:46;20.31;53.39
63899;HTU21D;50070;-32.946;-60.652;2022-11-09T08:58:12;20.26;53.55
63899;HTU21D;50070;-32.946;-60.652;2022-11-09T09:00:39;19.94;54.68
63899;HTU21D;50070;-32.946;-60.652;2022-11-09T09:03:06;20.20;53.71
63899;HTU21D;50070;-32.946;-60.652;2022-11-09T09:05:34;20.06;54.04
63899;HTU21D;50070;-32.946;-60.652;2022-11-09T09:08:02;20.20;53.55
63899;HTU21D;50070;-32.946;-60.652;2022-11-09T09:10:30;20.16;53.73
63899;HTU21D;50070;-32.946;-60.652;2022-11-09T09:12:57;20.36;52.96
63899;HTU21D;50070;-32.946;-60.652;2022-11-09T09:15:25;20.12;53.72
63899;HTU21D;50070;-32.946;-60.652;2022-11-09T09:17:51;20.26;53.71
63899;HTU21D;50070;-32.946;-60.652;2022-11-09T09:20:18;20.04;54.32
63899;HTU21D;50070;-32.946;-60.652;2022-11-09T09:22:45;19.83;54.90
63899;HTU21D;50070;-32.946;-60.652;2022-11-09T09:25:11;20.11;54.24
63899;HTU21D;50070;-32.946;-60.652;2022-11-09T09:27:38;19.83;55.09
63899;HTU21D;50070;-32.946;-60.652;2022-11-09T09:30:05;19.99;54.78
63899;HTU21D;50070;-32.946;-60.652;2022-11-09T09:32:32;19.80;55.38
63899;HTU21D;50070;-32.946;-60.652;2022-11-09T09:34:59;20.20;54.20
63899;HTU21D;50070;-32.946;-60.652;2022-11-09T09:37:25;20.00;54.88
63899;HTU21D;50070;-32.946;-60.652;2022-11-09T09:39:52;20.22;54.14
63899;HTU21D;50070;-32.946;-60.652;2022-11-09T09:42:34;20.11;54.44
63899;HTU21D;50070;-32.946;-60.652;2022-11-09T09:45:17;20.14;54.48
63899;HTU21D;50070;-32.946;-60.652;2022-11-09T09:48:04;20.09;54.42
63899;HTU21D;50070;-32.946;-60.652;2022-11-09T09:50:48;20.10;54.71
63899;HTU21D;50070;-32.946;-60.652;2022-11-09T09:55:54;19.91;55.27
63899;HTU21D;50070;-32.946;-60.652;2022-11-09T09:58:27;20.25;54.04
63899;HTU21D;50070;-32.946;-60.652;2022-11-09T10:01:17;20.05;54.43
63899;HTU21D;50070;-32.946;-60.652;2022-11-09T10:03:46;19.90;54.90
63899;HTU21D;50070;-32.946;-60.652;2022-11-09T10:10:24;20.03;54.57
63899;HTU21D;50070;-32.946;-60.652;2022-11-09T10:18:30;20.06;55.00
63899;HTU21D;50070;-32.946;-60.652;2022-11-09T10:24:51;20.45;53.72
63899;HTU21D;50070;-32.946;-60.652;2022-11-09T10:26:55;20.43;53.59
63899;HTU21D;50070;-32.946;-60.652;2022-11-09T10:29:26;20.33;53.38
63899;HTU21D;50070;-32.946;-60.652;2022-11-09T10:31:59;20.50;53.49
63899;HTU21D;50070;-32.946;-60.652;2022-11-09T10:37:20;20.80;51.97
63899;HTU21D;50070;-32.946;-60.652;2022-11-09T10:40:12;20.92;51.43
63899;HTU21D;50070;-32.946;-60.652;2022-11-09T10:43:04;20.94;50.45
63899;HTU21D;50070;-32.946;-60.652;2022-11-09T10:45:37;21.08;50.72
63899;HTU21D;50070;-32.946;-60.652;2022-11-09T10:48:05;21.33;49.47
63899;HTU21D;50070;-32.946;-60.652;2022-11-09T10:53:20;21.43;49.47
63899;HTU21D;50070;-32.946;-60.652;2022-11-09T10:56:16;21.58;48.99
63899;HTU21D;50070;-32.946;-60.652;2022-11-09T10:58:51;21.64;48.52
63899;HTU21D;50070;-32.946;-60.652;2022-11-09T11:01:25;21.74;48.37
63899;HTU21D;50070;-32.946;-60.652;2022-11-09T11:03:54;21.70;48.34
63899;HTU21D;50070;-32.946;-60.652;2022-11-09T11:11:38;22.23;47.12
63899;HTU21D;50070;-32.946;-60.652;2022-11-09T11:14:33;22.54;46.43
63899;HTU21D;50070;-32.946;-60.652;2022-11-09T11:17:01;22.44;46.88
63899;HTU21D;50070;-32.946;-60.652;2022-11-09T11:22:19;22.52;46.63
63899;HTU21D;50070;-32.946;-60.652;2022-11-09T11:24:58;22.49;46.96
63899;HTU21D;50070;-32.946;-60.652;2022-11-09T11:27:42;22.52;47.01
63899;HTU21D;50070;-32.946;-60.652;2022-11-09T11:30:16;22.52;47.24
63899;HTU21D;50070;-32.946;-60.652;2022-11-09T11:32:44;22.69;46.76
63899;HTU21D;50070;-32.946;-60.652;2022-11-09T11:35:14;23.14;45.43
63899;HTU21D;50070;-32.946;-60.652;2022-11-09T11:37:55;23.11;45.77
63899;HTU21D;50070;-32.946;-60.652;2022-11-09T11:40:33;22.96;46.04
63899;HTU21D;50070;-32.946;-60.652;2022-11-09T11:43:30;22.90;46.37
63899;HTU21D;50070;-32.946;-60.652;2022-11-09T11:46:53;23.03;46.22
63899;HTU21D;50070;-32.946;-60.652;2022-11-09T12:00:51;23.06;46.34
63899;HTU21D;50070;-32.946;-60.652;2022-11-09T12:03:32;23.50;45.46
63899;HTU21D;50070;-32.946;-60.652;2022-11-09T12:09:16;23.75;44.70
63899;HTU21D;50070;-32.946;-60.652;2022-11-09T12:22:12;23.71;44.98
63899;HTU21D;50070;-32.946;-60.652;2022-11-09T12:33:57;23.70;44.84
63899;HTU21D;50070;-32.946;-60.652;2022-11-09T12:39:38;23.39;46.02
63899;HTU21D;50070;-32.946;-60.652;2022-11-09T12:42:20;23.61;45.41
63899;HTU21D;50070;-32.946;-60.652;2022-11-09T12:45:04;23.54;45.72
63899;HTU21D;50070;-32.946;-60.652;2022-11-09T12:47:43;23.62;45.10
63899;HTU21D;50070;-32.946;-60.652;2022-11-09T12:50:16;23.58;45.39
63899;HTU21D;50070;-32.946;-60.652;2022-11-09T12:52:45;23.49;45.89
63899;HTU21D;50070;-32.946;-60.652;2022-11-09T12:55:18;23.36;46.10
63899;HTU21D;50070;-32.946;-60.652;2022-11-09T12:57:47;23.38;46.24
63899;HTU21D;50070;-32.946;-60.652;2022-11-09T13:03:06;23.84;45.21
63899;HTU21D;50070;-32.946;-60.652;2022-11-09T13:05:39;23.85;44.87
63899;HTU21D;50070;-32.946;-60.652;2022-11-09T13:08:18;24.57;43.24
63899;HTU21D;50070;-32.946;-60.652;2022-11-09T13:10:45;24.94;42.39
63899;HTU21D;50070;-32.946;-60.652;2022-11-09T13:23:48;25.54;41.45
63899;HTU21D;50070;-32.946;-60.652;2022-11-09T13:34:42;26.64;38.69
63899;HTU21D;50070;-32.946;-60.652;2022-11-09T13:48:46;27.43;37.72
63899;HTU21D;50070;-32.946;-60.652;2022-11-09T13:51:45;27.44;37.77
63899;HTU21D;50070;-32.946;-60.652;2022-11-09T13:54:32;27.80;36.11
63899;HTU21D;50070;-32.946;-60.652;2022-11-09T13:57:03;27.87;36.34
63899;HTU21D;50070;-32.946;-60.652;2022-11-09T14:00:01;27.78;36.43
63899;HTU21D;50070;-32.946;-60.652;2022-11-09T14:02:27;27.87;35.28
63899;HTU21D;50070;-32.946;-60.652;2022-11-09T14:04:54;28.11;35.06
63899;HTU21D;50070;-32.946;-60.652;2022-11-09T14:07:27;27.72;35.73
63899;HTU21D;50070;-32.946;-60.652;2022-11-09T14:15:56;28.43;33.86
63899;HTU21D;50070;-32.946;-60.652;2022-11-09T14:24:22;28.24;34.66
63899;HTU21D;50070;-32.946;-60.652;2022-11-09T14:29:36;28.53;33.39
63899;HTU21D;50070;-32.946;-60.652;2022-11-09T14:32:27;28.84;33.07
63899;HTU21D;50070;-32.946;-60.652;2022-11-09T14:35:20;28.99;32.53
63899;HTU21D;50070;-32.946;-60.652;2022-11-09T14:37:49;28.99;32.64
63899;HTU21D;50070;-32.946;-60.652;2022-11-09T14:42:49;28.19;33.29
63899;HTU21D;50070;-32.946;-60.652;2022-11-09T14:45:17;28.39;32.60
63899;HTU21D;50070;-32.946;-60.652;2022-11-09T14:47:46;28.00;33.84
63899;HTU21D;50070;-32.946;-60.652;2022-11-09T14:50:20;28.60;32.64
63899;HTU21D;50070;-32.946;-60.652;2022-11-09T14:52:49;28.89;32.49
63899;HTU21D;50070;-32.946;-60.652;2022-11-09T14:55:19;28.85;31.84
63899;HTU21D;50070;-32.946;-60.652;2022-11-09T14:57:47;28.69;30.77
63899;HTU21D;50070;-32.946;-60.652;2022-11-09T15:02:48;29.54;29.16
63899;HTU21D;50070;-32.946;-60.652;2022-11-09T15:05:37;29.49;26.99
63899;HTU21D;50070;-32.946;-60.652;2022-11-09T15:08:14;29.78;26.75
63899;HTU21D;50070;-32.946;-60.652;2022-11-09T15:10:48;29.83;27.36
63899;HTU21D;50070;-32.946;-60.652;2022-11-09T15:13:15;29.50;27.94
63899;HTU21D;50070;-32.946;-60.652;2022-11-09T15:15:49;29.58;27.70
63899;HTU21D;50070;-32.946;-60.652;2022-11-09T15:18:18;28.97;28.39
63899;HTU21D;50070;-32.946;-60.652;2022-11-09T15:20:46;29.52;28.42
63899;HTU21D;50070;-32.946;-60.652;2022-11-09T15:23:46;29.95;27.62
63899;HTU21D;50070;-32.946;-60.652;2022-11-09T15:29:24;29.01;29.18
63899;HTU21D;50070;-32.946;-60.652;2022-11-09T15:32:11;29.03;30.37
63899;HTU21D;50070;-32.946;-60.652;2022-11-09T15:39:50;27.99;32.70
63899;HTU21D;50070;-32.946;-60.652;2022-11-09T15:42:17;28.09;32.82
63899;HTU21D;50070;-32.946;-60.652;2022-11-09T15:44:44;28.23;32.34
63899;HTU21D;50070;-32.946;-60.652;2022-11-09T15:50:25;28.63;31.68
63899;HTU21D;50070;-32.946;-60.652;2022-11-09T15:52:52;29.51;30.14
63899;HTU21D;50070;-32.946;-60.652;2022-11-09T15:55:21;30.64;28.15
63899;HTU21D;50070;-32.946;-60.652;2022-11-09T15:57:49;31.83;26.38
63899;HTU21D;50070;-32.946;-60.652;2022-11-09T16:00:20;30.40;28.41
63899;HTU21D;50070;-32.946;-60.652;2022-11-09T16:02:48;30.03;28.97
63899;HTU21D;50070;-32.946;-60.652;2022-11-09T16:05:15;30.92;27.42
63899;HTU21D;50070;-32.946;-60.652;2022-11-09T16:07:49;31.58;26.82
63899;HTU21D;50070;-32.946;-60.652;2022-11-09T16:10:16;31.06;27.26
63899;HTU21D;50070;-32.946;-60.652;2022-11-09T16:12:49;30.48;28.43
63899;HTU21D;50070;-32.946;-60.652;2022-11-09T16:15:22;30.85;27.72
63899;HTU21D;50070;-32.946;-60.652;2022-11-09T16:17:49;31.45;26.85
63899;HTU21D;50070;-32.946;-60.652;2022-11-09T16:20:17;32.54;24.69
63899;HTU21D;50070;-32.946;-60.652;2022-11-09T16:22:45;31.69;26.41
63899;HTU21D;50070;-32.946;-60.652;2022-11-09T16:25:12;31.10;27.21
63899;HTU21D;50070;-32.946;-60.652;2022-11-09T16:27:39;31.65;26.55
63899;HTU21D;50070;-32.946;-60.652;2022-11-09T16:30:07;31.09;27.19
63899;HTU21D;50070;-32.946;-60.652;2022-11-09T16:32:35;31.85;25.40
63899;HTU21D;50070;-32.946;-60.652;2022-11-09T16:35:03;30.95;26.94
63899;HTU21D;50070;-32.946;-60.652;2022-11-09T16:37:31;31.94;24.91
63899;HTU21D;50070;-32.946;-60.652;2022-11-09T16:40:04;31.67;25.67
63899;HTU21D;50070;-32.946;-60.652;2022-11-09T16:42:34;31.13;26.15
63899;HTU21D;50070;-32.946;-60.652;2022-11-09T16:45:08;31.27;26.18
63899;HTU21D;50070;-32.946;-60.652;2022-11-09T16:47:43;31.01;26.30
63899;HTU21D;50070;-32.946;-60.652;2022-11-09T16:50:10;30.95;26.38
63899;HTU21D;50070;-32.946;-60.652;2022-11-09T16:52:37;31.15;25.88
63899;HTU21D;50070;-32.946;-60.652;2022-11-09T16:55:04;30.30;27.31
63899;HTU21D;50070;-32.946;-60.652;2022-11-09T16:57:32;30.55;26.98
63899;HTU21D;50070;-32.946;-60.652;2022-11-09T16:59:58;30.68;26.71
63899;HTU21D;50070;-32.946;-60.652;2022-11-09T17:02:25;30.96;26.20
63899;HTU21D;50070;-32.946;-60.652;2022-11-09T17:04:52;30.94;25.41
63899;HTU21D;50070;-32.946;-60.652;2022-11-09T17:07:20;30.78;25.61
63899;HTU21D;50070;-32.946;-60.652;2022-11-09T17:09:46;31.08;25.07
63899;HTU21D;50070;-32.946;-60.652;2022-11-09T17:12:13;30.54;26.12